Time;durP1;ratioP1;P1;durP2;ratioP2;P2;SDS_P1;SDS_P2;PMS_P1;PMS_P2;Temp;Humidity;BMP_temperature;BMP_pressure;BME280_temperature;BME280_humidity;BME280_pressure;Samples;Min_cycle;Max_cycle;Signal;HPM_P1;HPM_P2
2022/05/10 00:01:55;;;;;;;7.25;3.72;;;;;;;13.51;55.03;99982.75;4976968;28;20025;-77
2022/05/10 00:04:21;;;;;;;7.55;3.58;;;;;;;13.37;55.63;99985.81;4976769;28;20022;-77
2022/05/10 00:06:49;;;;;;;7.65;3.90;;;;;;;13.29;55.37;99983.88;4976900;28;20035;-76
2022/05/10 00:09:19;;;;;;;7.07;4.50;;;;;;;13.25;54.71;99975.28;4994583;28;20022;-77
2022/05/10 00:11:45;;;;;;;8.70;5.07;;;;;;;13.43;55.46;99998.47;4976863;28;20453;-77
2022/05/10 00:14:10;;;;;;;9.13;5.32;;;;;;;12.88;56.57;99977.84;4976802;28;20073;-77
2022/05/10 00:16:40;;;;;;;17.25;5.72;;;;;;;13.16;56.45;99986.59;4994152;28;20022;-77
2022/05/10 00:19:06;;;;;;;8.52;6.22;;;;;;;12.93;57.27;99977.66;4994268;28;20044;-77
2022/05/10 00:21:31;;;;;;;13.75;6.70;;;;;;;12.30;59.30;99969.81;4976230;28;20646;-77
2022/05/10 00:23:57;;;;;;;11.02;6.43;;;;;;;12.43;59.49;99982.84;4994102;28;20421;-77
2022/05/10 00:26:23;;;;;;;19.45;7.57;;;;;;;12.71;58.62;99978.75;4994129;28;20401;-77
2022/05/10 00:28:48;;;;;;;21.98;8.48;;;;;;;12.90;57.65;99983.94;4976587;28;20029;-77
2022/05/10 00:31:17;;;;;;;11.27;7.28;;;;;;;12.92;57.65;99992.84;4976010;28;20026;-77
2022/05/10 00:33:43;;;;;;;9.68;6.95;;;;;;;12.27;58.53;99984.50;4976732;28;20027;-77
2022/05/10 00:36:11;;;;;;;15.90;6.65;;;;;;;12.55;57.90;99986.88;4993970;28;20029;-77
2022/05/10 00:38:40;;;;;;;15.98;6.57;;;;;;;12.88;57.44;99989.91;4976269;28;20489;-76
2022/05/10 00:41:46;;;;;;;14.13;5.72;;;;;;;12.84;57.47;99971.25;4976361;28;20073;-77
2022/05/10 00:44:20;;;;;;;12.95;6.45;;;;;;;12.85;57.17;99989.75;4976289;28;20027;-77
2022/05/10 00:47:07;;;;;;;9.88;6.28;;;;;;;12.99;56.63;99997.94;4976248;28;20026;-77
2022/05/10 00:49:43;;;;;;;13.27;7.00;;;;;;;12.86;56.96;99975.38;4976334;28;20050;-78
2022/05/10 00:52:27;;;;;;;17.42;7.38;;;;;;;12.81;56.72;99989.59;4993594;28;20023;-77
2022/05/10 00:55:01;;;;;;;13.45;6.80;;;;;;;12.56;56.80;99958.50;4993804;28;20030;-78
2022/05/10 00:57:35;;;;;;;13.30;6.47;;;;;;;12.07;58.00;99984.06;4976086;28;20037;-78
2022/05/10 01:00:14;;;;;;;10.25;6.28;;;;;;;11.82;59.04;99966.09;4976147;28;20030;-78
2022/05/10 01:02:47;;;;;;;14.90;6.45;;;;;;;12.13;58.37;99968.72;4975836;28;20093;-78
2022/05/10 01:05:23;;;;;;;12.07;6.70;;;;;;;11.96;60.07;99993.97;4975867;28;20036;-78
2022/05/10 01:07:57;;;;;;;13.93;7.05;;;;;;;11.83;60.96;99990.16;4975851;28;20141;-77
2022/05/10 01:10:34;;;;;;;12.05;6.60;;;;;;;11.88;60.51;99982.41;4975997;28;20030;-77
2022/05/10 01:13:16;;;;;;;10.43;6.55;;;;;;;11.64;60.63;99961.31;4993532;28;20026;-77
2022/05/10 01:15:52;;;;;;;9.95;7.28;;;;;;;11.97;60.19;99979.59;4975769;28;20061;-77
2022/05/10 01:18:21;;;;;;;11.13;6.82;;;;;;;12.17;59.31;99977.28;4975601;28;20100;-77
2022/05/10 01:20:49;;;;;;;12.35;6.82;;;;;;;11.65;60.34;99973.38;4991861;28;20027;-77
2022/05/10 01:23:35;;;;;;;10.38;6.82;;;;;;;11.60;60.34;99982.75;4993137;28;20477;-78
2022/05/10 01:26:29;;;;;;;13.40;7.57;;;;;;;11.56;60.87;99986.56;4993271;28;20397;-78
2022/05/10 01:29:04;;;;;;;10.98;6.30;;;;;;;11.46;60.66;99971.72;4975538;28;20026;-77
2022/05/10 01:31:39;;;;;;;13.73;6.40;;;;;;;11.57;60.78;99955.38;4975450;28;20165;-77
2022/05/10 01:34:19;;;;;;;11.77;7.03;;;;;;;11.05;62.29;99947.78;4975809;28;20448;-77
2022/05/10 01:36:59;;;;;;;8.93;6.30;;;;;;;10.60;63.72;99952.44;4959290;28;20018;-78
2022/05/10 01:39:40;;;;;;;10.98;6.60;;;;;;;10.47;64.23;99953.38;4992581;28;20054;-77
2022/05/10 01:42:17;;;;;;;12.95;7.57;;;;;;;9.80;66.68;99955.94;4992962;28;20026;-77
2022/05/10 01:44:59;;;;;;;15.70;8.20;;;;;;;9.80;67.51;99981.06;4974407;28;20030;-78
2022/05/10 01:47:29;;;;;;;12.95;7.85;;;;;;;9.61;68.00;99986.84;4988641;28;20033;-78
2022/05/10 01:50:02;;;;;;;;;;;;;;;9.37;69.24;99982.38;4982087;28;20022;-77
2022/05/10 01:52:39;;;;;;;12.70;7.95;;;;;;;9.16;69.77;99990.34;4994587;28;19920;-77
2022/05/10 01:55:21;;;;;;;11.80;7.80;;;;;;;8.95;71.28;99991.63;5012377;28;20080;-77
2022/05/10 01:57:47;;;;;;;12.63;7.43;;;;;;;8.38;71.98;99956.47;5012170;28;20088;-77
2022/05/10 02:00:18;;;;;;;10.90;6.85;;;;;;;8.19;73.37;99984.41;5012207;28;20029;-77
2022/05/10 02:03:23;;;;;;;10.23;6.22;;;;;;;8.33;73.72;99987.25;4994351;28;20056;-77
2022/05/10 02:05:59;;;;;;;12.98;7.65;;;;;;;8.53;72.81;99986.06;4994610;28;20116;-77
2022/05/10 02:08:56;;;;;;;10.50;7.63;;;;;;;8.15;73.48;99964.72;5012098;28;20037;-77
2022/05/10 02:11:22;;;;;;;11.30;6.85;;;;;;;8.12;73.15;99959.75;4994390;28;20066;-77
2022/05/10 02:14:03;;;;;;;13.13;6.85;;;;;;;8.14;73.60;99990.94;4994076;28;20542;-76
2022/05/10 02:16:51;;;;;;;11.35;5.90;;;;;;;7.96;74.34;99978.72;4977835;28;20041;-77
2022/05/10 02:19:23;;;;;;;17.63;6.63;;;;;;;7.84;75.57;99993.09;4994261;28;20457;-77
2022/05/10 02:21:59;;;;;;;12.75;6.90;;;;;;;7.68;75.80;99961.06;4994117;28;20034;-78
2022/05/10 02:24:45;;;;;;;11.40;5.88;;;;;;;7.70;76.19;99987.47;5011808;28;20469;-77
2022/05/10 02:27:19;;;;;;;11.55;6.22;;;;;;;7.47;76.84;99963.34;5011686;28;20033;-78
2022/05/10 02:29:57;;;;;;;6.18;5.32;;;;;;;7.67;77.08;99981.69;5011876;28;20060;-77
2022/05/10 02:35:15;;;;;;;;;;;;;;;7.60;76.74;99979.28;4997549;28;20061;-77
2022/05/10 02:37:41;;;;;;;9.43;5.57;;;;;;;7.52;76.69;99952.13;5010193;28;19947;-77
2022/05/10 02:40:08;;;;;;;12.07;6.93;;;;;;;7.26;77.66;99952.53;5011110;28;20137;-78
2022/05/10 02:42:35;;;;;;;13.95;7.53;;;;;;;7.60;76.95;99957.00;4994153;28;20037;-77
2022/05/10 02:45:01;;;;;;;15.95;5.72;;;;;;;7.67;76.63;99949.09;5011494;28;20120;-78
2022/05/10 02:47:42;;;;;;;10.60;5.60;;;;;;;7.91;75.81;99969.63;4977615;28;20038;-78
2022/05/10 02:50:21;;;;;;;6.47;5.60;;;;;;;8.18;74.44;99951.31;5011683;28;20040;-77
2022/05/10 02:52:47;;;;;;;6.38;5.20;;;;;;;8.34;73.42;99961.03;4993447;28;20129;-74
2022/05/10 02:55:18;;;;;;;8.15;5.82;;;;;;;8.47;73.07;99955.75;4994756;28;20475;-77
2022/05/10 02:57:46;;;;;;;15.32;7.25;;;;;;;8.29;73.31;99956.38;5013987;28;20097;-77
2022/05/10 03:00:13;;;;;;;28.90;7.75;;;;;;;8.15;74.33;99963.88;4997665;28;20499;-78
2022/05/10 03:02:43;;;;;;;13.40;8.45;;;;;;;7.86;75.40;99953.81;5015339;28;20117;-78
2022/05/10 03:05:12;;;;;;;15.48;9.07;;;;;;;7.76;76.35;99960.38;4997406;28;20030;-77
2022/05/10 03:07:39;;;;;;;18.55;9.55;;;;;;;7.89;76.17;99975.47;4997638;28;20046;-78
2022/05/10 03:10:07;;;;;;;22.38;10.82;;;;;;;7.99;75.76;99966.13;4997490;28;20030;-77
2022/05/10 03:12:33;;;;;;;18.98;10.05;;;;;;;8.03;75.84;99975.53;4997463;28;20034;-77
2022/05/10 03:14:59;;;;;;;14.35;8.77;;;;;;;7.93;75.53;99959.00;4997915;28;20179;-77
2022/05/10 03:17:25;;;;;;;14.23;8.90;;;;;;;7.84;76.16;99961.63;4997691;28;20108;-77
2022/05/10 03:19:51;;;;;;;14.95;9.70;;;;;;;7.87;76.11;99963.81;5013441;28;20513;-77
2022/05/10 03:22:17;;;;;;;12.80;9.05;;;;;;;7.88;75.78;99954.34;5014994;28;20030;-78
2022/05/10 03:24:44;;;;;;;26.88;10.25;;;;;;;8.09;75.49;99962.34;5013265;28;20037;-77
2022/05/10 03:27:12;;;;;;;12.25;8.93;;;;;;;7.93;75.57;99962.59;5014442;28;20030;-78
2022/05/10 03:29:39;;;;;;;12.02;9.48;;;;;;;7.97;75.19;99957.25;5014936;28;20036;-78
2022/05/10 03:32:06;;;;;;;19.58;8.95;;;;;;;8.01;75.76;99947.97;4997196;28;20030;-77
2022/05/10 03:37:17;;;;;;;14.52;9.10;;;;;;;7.87;75.26;99956.28;5015115;28;20033;-78
2022/05/10 03:39:43;;;;;;;15.60;9.15;;;;;;;8.01;75.31;99956.31;5014519;28;20503;-78
2022/05/10 03:42:09;;;;;;;19.20;9.75;;;;;;;8.07;75.17;99956.22;4996929;28;20065;-78
2022/05/10 03:44:37;;;;;;;20.25;8.73;;;;;;;8.27;75.04;99980.94;4996890;28;20393;-77
2022/05/10 03:47:04;;;;;;;15.18;9.73;;;;;;;8.06;75.32;99965.72;5014581;28;20034;-78
2022/05/10 03:49:31;;;;;;;14.65;9.80;;;;;;;8.02;75.46;99968.28;4996724;28;20091;-78
2022/05/10 03:51:57;;;;;;;22.98;10.45;;;;;;;8.11;75.53;99985.16;4997034;28;20034;-78
2022/05/10 03:54:24;;;;;;;16.85;9.32;;;;;;;7.99;75.47;99989.25;5014450;28;20033;-78
2022/05/10 03:56:50;;;;;;;16.85;9.25;;;;;;;8.03;75.27;99971.91;5012922;28;20065;-78
2022/05/10 03:59:17;;;;;;;17.50;9.85;;;;;;;8.19;75.27;99975.25;5014194;28;20034;-78
2022/05/10 04:01:44;;;;;;;15.18;9.43;;;;;;;8.48;74.44;99999.22;5014381;28;20037;-77
2022/05/10 04:04:10;;;;;;;13.68;8.73;;;;;;;8.51;74.01;99982.75;5014031;28;20481;-78
2022/05/10 04:06:38;;;;;;;17.38;11.43;;;;;;;8.51;74.58;99993.09;4995534;28;20040;-78
2022/05/10 04:09:04;;;;;;;28.05;11.20;;;;;;;8.36;75.66;99983.84;5014240;28;20032;-78
2022/05/10 04:11:30;;;;;;;27.08;10.63;;;;;;;8.52;75.30;99984.41;4996356;28;20465;-78
2022/05/10 04:13:56;;;;;;;22.55;11.85;;;;;;;8.61;75.22;99990.09;4996151;28;20022;-78
2022/05/10 04:16:22;;;;;;;24.23;11.20;;;;;;;8.52;75.80;99984.41;4991480;28;20014;-78
2022/05/10 04:18:47;;;;;;;17.02;11.02;;;;;;;8.45;76.08;99975.59;5013713;28;20053;-78
2022/05/10 04:21:16;;;;;;;16.02;11.23;;;;;;;8.66;75.92;99972.41;5013863;28;20029;-81
2022/05/10 04:23:41;;;;;;;17.38;9.77;;;;;;;8.79;75.48;99977.16;4996127;28;20037;-76
2022/05/10 04:26:14;;;;;;;14.98;10.32;;;;;;;9.23;74.69;100008.34;4988602;28;20023;-76
2022/05/10 04:28:42;;;;;;;13.93;10.77;;;;;;;9.35;74.53;100006.97;4994223;28;20131;-76
2022/05/10 04:31:08;;;;;;;20.50;10.63;;;;;;;9.19;74.58;99973.81;4994224;28;20030;-74
2022/05/10 04:33:35;;;;;;;14.45;9.88;;;;;;;9.23;75.10;100004.72;4988598;28;20355;-73
2022/05/10 04:36:00;;;;;;;14.10;8.93;;;;;;;9.48;75.15;100003.34;4976521;28;20124;-74
2022/05/10 04:38:26;;;;;;;16.17;9.30;;;;;;;9.65;74.18;99991.50;4976317;28;20438;-74
2022/05/10 04:43:38;;;;;;;13.32;8.27;;;;;;;9.67;74.70;99977.19;4994280;28;20042;-74
2022/05/10 04:46:03;;;;;;;12.63;9.18;;;;;;;10.00;73.10;99992.88;4992283;28;20026;-75
2022/05/10 04:48:29;;;;;;;14.32;8.18;;;;;;;10.25;72.66;99997.78;4992552;28;20022;-77
2022/05/10 04:50:55;;;;;;;12.63;7.50;;;;;;;10.39;72.11;99997.72;4975956;28;20117;-75
2022/05/10 04:53:20;;;;;;;31.42;8.40;;;;;;;10.63;71.75;99993.75;4976322;28;20022;-73
2022/05/10 04:55:48;;;;;;;16.02;8.93;;;;;;;10.87;70.65;99997.31;4993951;28;20097;-73
2022/05/10 04:58:14;;;;;;;23.27;9.63;;;;;;;10.73;71.35;99998.22;4976120;28;20056;-73
2022/05/10 05:00:40;;;;;;;623.67;66.82;;;;;;;10.78;71.23;100003.69;4992029;28;20050;-72
2022/05/10 05:03:06;;;;;;;16.73;8.98;;;;;;;10.69;70.63;100005.63;4975802;28;20053;-73
2022/05/10 05:05:31;;;;;;;32.67;10.13;;;;;;;10.68;70.51;100001.16;4976655;28;20053;-74
2022/05/10 05:07:57;;;;;;;19.67;9.63;;;;;;;10.32;71.84;99996.53;4994336;28;20520;-75
2022/05/10 05:10:23;;;;;;;18.20;9.90;;;;;;;10.25;72.13;99994.19;4980051;28;20538;-74
2022/05/10 05:12:49;;;;;;;22.95;9.65;;;;;;;10.56;71.92;99987.81;4995146;28;20065;-76
2022/05/10 05:15:15;;;;;;;16.33;9.05;;;;;;;10.85;70.87;99996.78;5020288;28;20030;-74
2022/05/10 05:17:40;;;;;;;15.75;8.70;;;;;;;11.16;69.81;99979.94;5014150;28;20512;-74
2022/05/10 05:20:07;;;;;;;13.20;8.60;;;;;;;11.35;68.28;99982.41;5032432;28;20459;-76
2022/05/10 05:22:32;;;;;;;13.27;8.35;;;;;;;11.52;67.57;100006.00;5032443;28;20025;-75
2022/05/10 05:24:58;;;;;;;16.10;8.65;;;;;;;11.24;68.35;99972.69;5032205;28;20458;-79
2022/05/10 05:27:23;;;;;;;14.00;8.45;;;;;;;11.26;67.23;99981.56;5014751;28;20025;-74
2022/05/10 05:29:49;;;;;;;22.55;8.93;;;;;;;11.34;67.88;99985.53;5013715;28;20087;-73
2022/05/10 05:32:18;;;;;;;11.25;7.38;;;;;;;11.40;67.11;100000.22;5031347;28;20029;-72
2022/05/10 05:34:44;;;;;;;13.25;8.27;;;;;;;11.52;67.19;99958.38;5031378;28;20051;-73
2022/05/10 05:39:53;;;;;;;14.98;8.70;;;;;;;12.17;66.36;99983.69;5031162;28;20151;-77
2022/05/10 05:42:19;;;;;;;12.65;8.35;;;;;;;12.31;64.86;99994.72;5014834;28;20034;-75
2022/05/10 05:44:45;;;;;;;14.77;7.55;;;;;;;12.08;63.96;99985.72;4986859;28;20472;-76
2022/05/10 05:47:10;;;;;;;11.70;7.40;;;;;;;12.38;63.42;99999.03;4988523;28;20030;-77
2022/05/10 05:49:36;;;;;;;11.88;7.05;;;;;;;12.30;62.55;100001.50;4988767;28;20069;-77
2022/05/10 05:52:04;;;;;;;12.32;7.40;;;;;;;12.24;63.59;100005.63;4990302;28;20026;-75
2022/05/10 05:54:31;;;;;;;11.07;6.65;;;;;;;12.52;63.77;99994.00;4989755;28;20542;-73
2022/05/10 05:57:06;;;;;;;11.57;5.68;;;;;;;12.86;60.81;99991.38;4972143;28;20034;-79
2022/05/10 05:59:33;;;;;;;10.90;6.10;;;;;;;13.13;59.88;99989.25;4972549;28;20041;-74
2022/05/10 06:01:58;;;;;;;9.82;5.32;;;;;;;13.33;59.60;99993.25;4989716;28;20037;-75
2022/05/10 06:04:24;;;;;;;12.82;5.97;;;;;;;13.32;60.03;99998.06;4990029;28;20493;-75
2022/05/10 06:06:50;;;;;;;8.15;4.95;;;;;;;13.27;58.30;99995.47;4989379;28;20068;-75
2022/05/10 06:09:22;;;;;;;14.05;5.63;;;;;;;13.50;58.42;99999.97;4989948;28;20100;-74
2022/05/10 06:11:51;;;;;;;10.88;4.93;;;;;;;13.79;58.02;99999.06;4997794;28;20030;-75
2022/05/10 06:14:17;;;;;;;24.10;5.15;;;;;;;13.98;57.48;99994.91;4982017;28;20069;-74
2022/05/10 06:16:42;;;;;;;9.90;5.18;;;;;;;14.06;57.67;99996.00;5002231;28;20120;-73
2022/05/10 06:19:09;;;;;;;8.20;4.50;;;;;;;14.20;56.29;99995.69;5008626;28;20514;-72
2022/05/10 06:21:35;;;;;;;13.18;4.40;;;;;;;14.27;52.84;99990.34;4987180;28;20045;-75
2022/05/10 06:24:01;;;;;;;10.00;4.50;;;;;;;14.37;52.05;99992.72;4994642;28;20121;-72
2022/05/10 06:26:26;;;;;;;6.90;3.78;;;;;;;14.66;51.20;99993.69;4989808;28;20030;-72
2022/05/10 06:28:52;;;;;;;4.88;3.60;;;;;;;14.91;52.73;99990.13;4974280;28;20049;-73
2022/05/10 06:31:17;;;;;;;6.47;3.30;;;;;;;15.18;52.22;99982.91;5002295;28;20052;-77
2022/05/10 06:33:43;;;;;;;17.80;4.47;;;;;;;15.30;50.44;99982.09;5009868;28;20026;-71
2022/05/10 06:36:08;;;;;;;9.95;3.47;;;;;;;15.51;49.76;99979.09;5003485;28;20033;-72
2022/05/10 06:38:34;;;;;;;6.65;3.63;;;;;;;15.71;50.55;99984.94;5015525;28;20037;-73
2022/05/10 06:41:01;;;;;;;8.82;4.10;;;;;;;15.84;49.71;99980.88;5000538;28;20477;-73
2022/05/10 06:43:28;;;;;;;7.55;3.40;;;;;;;15.73;49.86;99980.56;4986586;28;20043;-72
2022/05/10 06:45:57;;;;;;;11.25;3.67;;;;;;;15.91;48.77;99977.47;4981714;28;20018;-72
2022/05/10 06:48:24;;;;;;;5.65;3.40;;;;;;;15.80;48.49;99979.13;4993484;28;20029;-72
2022/05/10 06:50:49;;;;;;;7.63;3.25;;;;;;;15.93;47.58;99979.94;4999651;28;20033;-73
2022/05/10 06:53:15;;;;;;;7.75;3.67;;;;;;;15.78;48.66;99973.84;5017664;28;20021;-73
2022/05/10 06:55:43;;;;;;;5.55;3.08;;;;;;;15.73;49.08;99985.41;5017383;28;20034;-73
2022/05/10 06:58:09;;;;;;;6.60;3.53;;;;;;;16.18;49.04;99977.81;5016754;28;20022;-73
2022/05/10 07:00:38;;;;;;;5.00;3.47;;;;;;;16.30;48.82;99974.13;5016931;28;20108;-73
2022/05/10 07:03:05;;;;;;;10.63;3.40;;;;;;;16.48;48.35;99970.94;5016808;28;20501;-73
2022/05/10 07:05:31;;;;;;;9.90;3.80;;;;;;;16.61;48.44;99966.84;5017001;28;20033;-73
2022/05/10 07:07:56;;;;;;;9.95;3.70;;;;;;;16.61;46.87;99972.50;4999271;28;20036;-73
2022/05/10 07:10:22;;;;;;;12.50;4.50;;;;;;;16.58;46.64;99978.03;5016924;28;20030;-73
2022/05/10 07:12:47;;;;;;;9.07;2.95;;;;;;;16.64;46.88;99970.94;5017965;28;20026;-74
2022/05/10 07:15:16;;;;;;;7.70;3.75;;;;;;;16.83;45.84;99961.75;5017987;28;20021;-73
2022/05/10 07:17:42;;;;;;;5.85;3.80;;;;;;;16.37;46.66;99968.66;5017707;28;20070;-74
2022/05/10 07:20:10;;;;;;;9.40;3.97;;;;;;;16.52;47.09;99975.50;5000010;28;20121;-74
2022/05/10 07:22:38;;;;;;;4.90;3.00;;;;;;;16.83;45.46;99973.03;5000060;28;20022;-74
2022/05/10 07:25:05;;;;;;;3.65;3.33;;;;;;;17.25;45.62;99961.16;5017637;28;20065;-74
2022/05/10 07:27:31;;;;;;;28.90;4.25;;;;;;;17.22;44.46;99964.69;5000068;28;20034;-74
2022/05/10 07:29:56;;;;;;;7.80;2.63;;;;;;;16.92;44.08;99964.38;5000030;28;20029;-73
2022/05/10 07:32:24;;;;;;;6.20;3.10;;;;;;;17.33;45.79;99964.13;5017666;28;20088;-74
2022/05/10 07:34:50;;;;;;;5.85;3.10;;;;;;;17.45;43.56;99964.00;4999986;28;20014;-73
2022/05/10 07:37:16;;;;;;;7.50;3.10;;;;;;;17.89;44.67;99962.09;5017751;28;20043;-73
2022/05/10 07:39:41;;;;;;;4.80;2.78;;;;;;;18.15;43.48;99954.94;5017527;28;20054;-73
2022/05/10 07:42:07;;;;;;;2.72;2.30;;;;;;;18.34;42.36;99954.91;4997231;28;20132;-73
2022/05/10 07:44:33;;;;;;;6.75;3.03;;;;;;;18.51;42.92;99956.41;5014471;28;20018;-73
2022/05/10 07:46:59;;;;;;;4.25;2.78;;;;;;;18.72;42.17;99954.34;5014533;28;20100;-74
2022/05/10 07:49:25;;;;;;;7.15;2.60;;;;;;;18.67;42.14;99958.31;5014535;28;20095;-74
2022/05/10 07:51:51;;;;;;;7.50;2.45;;;;;;;18.78;41.60;99958.47;5013117;28;20373;-74
2022/05/10 07:54:17;;;;;;;7.80;3.28;;;;;;;18.74;40.75;99961.25;5014578;28;20022;-75
2022/05/10 07:56:43;;;;;;;13.20;2.83;;;;;;;18.74;41.56;99961.25;5014427;28;20017;-76
2022/05/10 07:59:08;;;;;;;7.93;2.40;;;;;;;18.86;41.28;99953.75;4996381;28;20030;-73
2022/05/10 08:01:34;;;;;;;6.30;2.28;;;;;;;19.15;40.67;99954.22;5014116;28;20061;-74
2022/05/10 08:04:00;;;;;;;5.78;2.40;;;;;;;19.38;40.78;99939.97;5014146;28;20026;-74
2022/05/10 08:06:27;;;;;;;3.67;2.30;;;;;;;19.80;39.66;99951.47;4996278;28;20063;-73
2022/05/10 08:08:53;;;;;;;7.32;2.20;;;;;;;19.83;39.43;99945.81;5013953;28;20045;-73
2022/05/10 08:11:18;;;;;;;8.90;2.40;;;;;;;20.06;38.71;99940.03;4996538;28;20397;-74
2022/05/10 08:13:44;;;;;;;7.22;2.20;;;;;;;19.97;38.67;99930.16;5013773;28;20024;-74
2022/05/10 08:16:10;;;;;;;5.15;2.40;;;;;;;20.09;37.60;99940.47;4996276;28;20029;-74
2022/05/10 08:18:39;;;;;;;4.20;2.53;;;;;;;20.02;37.91;99939.16;5012348;28;20021;-73
2022/05/10 08:21:08;;;;;;;6.90;2.17;;;;;;;19.59;37.20;99932.94;5013673;28;20037;-74
2022/05/10 08:23:36;;;;;;;4.50;2.25;;;;;;;19.95;37.17;99933.41;5012311;28;20083;-73
2022/05/10 08:26:03;;;;;;;4.65;2.03;;;;;;;20.13;36.60;99927.09;5013615;28;20049;-74
2022/05/10 08:28:30;;;;;;;9.05;2.83;;;;;;;20.21;36.12;99931.66;5013661;28;20101;-74
2022/05/10 08:30:56;;;;;;;6.35;2.22;;;;;;;20.29;35.52;99924.84;5013556;28;20084;-74
2022/05/10 08:33:28;;;;;;;8.73;2.10;;;;;;;20.19;36.41;99929.19;5013621;28;20088;-74
2022/05/10 08:35:55;;;;;;;5.15;2.25;;;;;;;19.99;36.66;99925.75;4995881;28;20022;-74
2022/05/10 08:38:22;;;;;;;6.75;2.10;;;;;;;20.15;37.12;99930.38;5013275;28;20029;-73
2022/05/10 08:40:52;;;;;;;5.95;2.33;;;;;;;20.20;38.13;99925.16;5013307;28;20099;-74
2022/05/10 08:43:23;;;;;;;2.38;1.95;;;;;;;20.87;37.92;99919.66;4995790;28;20416;-74
2022/05/10 08:45:49;;;;;;;7.03;2.67;;;;;;;21.18;36.13;99920.28;5013476;28;20489;-74
2022/05/10 08:48:15;;;;;;;3.78;2.33;;;;;;;21.18;35.52;99920.28;4995868;28;20141;-74
2022/05/10 08:50:45;;;;;;;7.07;2.67;;;;;;;20.98;36.19;99916.91;4995607;28;20029;-74
2022/05/10 08:53:12;;;;;;;2.28;2.00;;;;;;;21.39;35.64;99921.63;5012654;28;20404;-74
2022/05/10 08:55:44;;;;;;;3.75;2.25;;;;;;;21.33;34.50;99917.53;5013318;28;20034;-78
2022/05/10 08:58:32;;;;;;;9.18;2.20;;;;;;;21.37;34.75;99924.06;5011899;28;20488;-73
2022/05/10 09:01:02;;;;;;;5.15;2.42;;;;;;;21.38;34.41;99919.19;5012844;28;20063;-73
2022/05/10 09:03:47;;;;;;;15.95;2.65;;;;;;;21.67;33.72;99917.31;4994784;28;20041;-73
2022/05/10 09:06:20;;;;;;;6.18;2.50;;;;;;;21.44;32.94;99914.75;5012102;28;20033;-73
2022/05/10 09:09:06;;;;;;;7.85;2.20;;;;;;;21.78;33.42;99916.53;5012118;28;20551;-73
2022/05/10 09:11:42;;;;;;;7.18;1.80;;;;;;;21.86;32.75;99904.75;5012191;28;20029;-73
2022/05/10 09:14:11;;;;;;;4.55;2.83;;;;;;;21.64;33.21;99915.25;5011973;28;20459;-73
2022/05/10 09:16:37;;;;;;;4.40;2.37;;;;;;;21.82;33.63;99906.78;5012413;28;20030;-74
2022/05/10 09:19:03;;;;;;;6.70;2.42;;;;;;;21.79;33.91;99909.63;5012616;28;20263;-74
2022/05/10 09:21:47;;;;;;;8.40;2.53;;;;;;;22.10;34.24;99913.78;5012732;28;20109;-74
2022/05/10 09:24:37;;;;;;;7.95;3.40;;;;;;;22.35;32.26;99906.50;5012655;28;20032;-74
2022/05/10 09:27:06;;;;;;;9.05;2.78;;;;;;;22.09;32.90;99914.19;5012342;28;20026;-73
2022/05/10 09:29:49;;;;;;;5.43;2.65;;;;;;;21.92;32.83;99896.66;4994995;28;20025;-74
2022/05/10 09:35:24;;;;;;;9.45;2.72;;;;;;;22.54;31.47;99894.72;5012562;28;20037;-73
2022/05/10 09:38:03;;;;;;;6.70;2.40;;;;;;;22.85;31.07;99892.25;4994751;28;20033;-74
2022/05/10 09:40:34;;;;;;;6.82;2.20;;;;;;;23.04;31.01;99884.47;5012239;28;20416;-74
2022/05/10 09:43:28;;;;;;;10.43;2.28;;;;;;;23.09;30.05;99884.06;5012307;28;20105;-73
2022/05/10 09:46:24;;;;;;;3.55;2.13;;;;;;;23.02;31.34;99884.06;5010072;28;20125;-74
2022/05/10 09:48:50;;;;;;;4.30;2.05;;;;;;;22.97;30.08;99879.59;4992344;28;20034;-74
2022/05/10 09:51:39;;;;;;;4.53;1.80;;;;;;;23.01;30.71;99876.75;5012238;28;20554;-73
2022/05/10 09:54:11;;;;;;;10.55;2.40;;;;;;;23.05;30.24;99876.75;4994537;28;20044;-73
2022/05/10 09:56:42;;;;;;;4.97;1.95;;;;;;;23.28;30.02;99874.25;4994676;28;20511;-74
2022/05/10 09:59:24;;;;;;;9.18;2.70;;;;;;;23.32;29.98;99870.56;5012097;28;20030;-73
2022/05/10 10:01:56;;;;;;;2.45;1.98;;;;;;;23.38;29.62;99854.66;5011959;28;20028;-74
2022/05/10 10:04:37;;;;;;;12.30;2.30;;;;;;;23.48;29.93;99852.97;4993500;28;20428;-74
2022/05/10 10:07:31;;;;;;;9.65;2.00;;;;;;;23.60;30.55;99858.22;5011879;28;20026;-74
2022/05/10 10:10:21;;;;;;;2.13;1.90;;;;;;;23.25;29.41;99855.09;5007306;28;20424;-73
2022/05/10 10:12:47;;;;;;;6.53;1.92;;;;;;;23.20;30.14;99858.34;4994038;28;20484;-74
2022/05/10 10:15:31;;;;;;;7.45;2.35;;;;;;;23.27;30.62;99840.41;4993979;28;20033;-73
2022/05/10 10:18:04;;;;;;;5.38;2.25;;;;;;;23.20;29.64;99843.28;4994259;28;20034;-74
2022/05/10 10:20:36;;;;;;;4.80;2.00;;;;;;;23.68;29.46;99842.69;5011756;28;20026;-74
2022/05/10 10:23:10;;;;;;;5.25;2.03;;;;;;;23.83;27.41;99837.72;4994324;28;20042;-74
2022/05/10 10:25:44;;;;;;;4.90;1.70;;;;;;;23.68;26.37;99848.41;5011703;28;20398;-74
2022/05/10 10:28:29;;;;;;;2.50;1.67;;;;;;;23.36;25.95;99840.81;4994228;28;20026;-73
2022/05/10 10:31:05;;;;;;;10.18;2.65;;;;;;;23.42;27.59;99839.16;5011867;28;20084;-73
2022/05/10 10:33:49;;;;;;;9.32;2.42;;;;;;;23.18;26.79;99831.47;5011698;28;20496;-72
2022/05/10 10:36:22;;;;;;;1.90;1.70;;;;;;;23.31;26.96;99829.81;4993892;28;20036;-75
2022/05/10 10:39:02;;;;;;;3.05;1.98;;;;;;;23.52;26.45;99826.06;5011350;28;20029;-73
2022/05/10 10:41:48;;;;;;;2.50;1.67;;;;;;;23.98;23.93;99809.84;4989926;28;20030;-76
2022/05/10 10:44:27;;;;;;;2.00;1.10;;;;;;;24.25;21.27;99823.56;4989970;28;20409;-75
2022/05/10 10:46:59;;;;;;;1.63;1.23;;;;;;;24.46;21.24;99816.03;4988669;28;20018;-76
2022/05/10 10:49:30;;;;;;;2.72;1.58;;;;;;;24.66;21.61;99815.44;4972607;28;20382;-75
2022/05/10 10:51:57;;;;;;;14.18;1.55;;;;;;;24.92;21.68;99813.16;4987847;28;20105;-74
2022/05/10 10:54:26;;;;;;;4.68;1.73;;;;;;;24.91;23.59;99802.94;4989838;28;20101;-78
2022/05/10 10:57:16;;;;;;;8.60;2.05;;;;;;;24.46;24.91;99807.44;4989902;28;20480;-75
2022/05/10 10:59:56;;;;;;;;;;;;;;;24.34;25.13;99802.25;4994321;28;20022;-75
2022/05/10 11:02:55;;;;;;;2.83;1.75;;;;;;;24.60;22.72;99803.66;5011042;28;19915;-75
2022/05/10 11:05:45;;;;;;;7.60;2.35;;;;;;;24.42;23.08;99798.09;5011410;28;20026;-75
2022/05/10 11:08:19;;;;;;;2.50;1.60;;;;;;;25.02;20.31;99802.81;5011445;28;20026;-75
2022/05/10 11:10:48;;;;;;;5.75;2.15;;;;;;;25.02;18.82;99794.22;5011148;28;20028;-76
2022/05/10 11:13:40;;;;;;;4.27;1.13;;;;;;;24.91;20.60;99795.16;5011214;28;20033;-75
2022/05/10 11:16:34;;;;;;;5.10;1.20;;;;;;;25.00;19.71;99785.25;4994968;28;20033;-76
2022/05/10 11:19:28;;;;;;;9.30;2.63;;;;;;;25.31;19.96;99783.22;4997204;28;20025;-75
2022/05/10 11:22:04;;;;;;;6.35;1.48;;;;;;;25.51;21.50;99785.47;4997302;28;20173;-76
2022/05/10 11:24:47;;;;;;;4.93;2.25;;;;;;;25.31;21.37;99782.44;4997230;28;20026;-76
2022/05/10 11:27:21;;;;;;;5.97;2.28;;;;;;;25.06;20.35;99778.66;5014931;28;20057;-75
2022/05/10 11:29:59;;;;;;;6.32;1.55;;;;;;;25.12;21.01;99781.84;5014608;28;20083;-76
2022/05/10 11:32:40;;;;;;;5.63;2.03;;;;;;;25.17;21.08;99780.56;5014695;28;20404;-76
2022/05/10 11:35:13;;;;;;;18.52;2.42;;;;;;;25.30;20.80;99773.03;4994311;28;20029;-76
2022/05/10 11:37:59;;;;;;;9.77;1.67;;;;;;;25.54;19.92;99755.97;5005141;28;20463;-78
2022/05/10 11:40:31;;;;;;;4.50;1.75;;;;;;;25.53;20.42;99765.00;5000910;28;20052;-75
2022/05/10 11:43:02;;;;;;;2.75;1.00;;;;;;;25.54;18.49;99758.03;4974702;28;20033;-75
2022/05/10 11:46:00;;;;;;;2.28;1.30;;;;;;;25.52;17.73;99758.44;5006818;28;20026;-77
2022/05/10 11:48:44;;;;;;;8.10;1.58;;;;;;;25.26;16.70;99752.22;4957884;28;20065;-77
2022/05/10 11:51:42;;;;;;;2.47;1.00;;;;;;;25.57;17.93;99749.34;4992878;28;20501;-77
2022/05/10 11:54:19;;;;;;;1.83;1.25;;;;;;;25.72;17.86;99749.16;5003941;28;20037;-77
2022/05/10 11:56:48;;;;;;;1.35;0.80;;;;;;;25.89;18.16;99744.41;4993840;28;20460;-77
2022/05/10 11:59:23;;;;;;;2.80;1.10;;;;;;;25.91;17.95;99736.97;5012957;28;20075;-78
2022/05/10 12:01:51;;;;;;;1.15;1.00;;;;;;;25.95;17.03;99738.97;4996273;28;20022;-77
2022/05/10 12:04:32;;;;;;;1.95;1.08;;;;;;;25.84;17.58;99736.28;4996475;28;20030;-77
2022/05/10 12:07:24;;;;;;;3.08;2.15;;;;;;;25.98;17.85;99733.16;5002340;28;20030;-78